Time;durP1;ratioP1;P1;durP2;ratioP2;P2;SDS_P1;SDS_P2;PMS_P1;PMS_P2;Temp;Humidity;BMP_temperature;BMP_pressure;BME280_temperature;BME280_humidity;BME280_pressure;Samples;Min_cycle;Max_cycle;Signal;HPM_P1;HPM_P2
2023/12/12 00:00:01;;;;;;;6.23;1.90;;;;;;;8.44;100.00;97650.84;5072274;28;20237;-78
2023/12/12 00:02:28;;;;;;;4.23;1.80;;;;;;;8.45;100.00;97642.00;5072390;28;20245;-79
2023/12/12 00:04:53;;;;;;;4.47;2.17;;;;;;;8.41;100.00;97648.41;5072044;28;20564;-78
2023/12/12 00:07:20;;;;;;;5.83;1.90;;;;;;;8.33;100.00;97648.09;5072555;28;20204;-78
2023/12/12 00:09:46;;;;;;;2.80;1.53;;;;;;;8.21;100.00;97649.75;5072682;28;20205;-78
2023/12/12 00:12:13;;;;;;;3.63;1.90;;;;;;;8.08;100.00;97658.56;5072418;28;20230;-79
2023/12/12 00:14:39;;;;;;;4.97;1.73;;;;;;;8.03;100.00;97655.38;5071869;28;20589;-78
2023/12/12 00:17:07;;;;;;;2.33;1.60;;;;;;;8.00;100.00;97655.56;5072825;28;20214;-78
2023/12/12 00:19:34;;;;;;;3.00;1.73;;;;;;;7.94;100.00;97650.72;5072755;28;20236;-78
2023/12/12 00:22:00;;;;;;;6.23;1.93;;;;;;;7.91;100.00;97661.47;5072226;28;20236;-78
2023/12/12 00:24:27;;;;;;;6.83;2.40;;;;;;;7.87;100.00;97659.97;5071832;28;20214;-78
2023/12/12 00:26:53;;;;;;;3.80;1.87;;;;;;;7.92;100.00;97660.50;5072754;28;20557;-78
2023/12/12 00:29:19;;;;;;;5.63;1.97;;;;;;;7.88;100.00;97651.97;5072838;28;20223;-78
2023/12/12 00:31:46;;;;;;;7.03;2.73;;;;;;;7.94;100.00;97655.97;5072758;28;20233;-79
2023/12/12 00:34:14;;;;;;;6.10;2.10;;;;;;;7.97;100.00;97655.78;5072519;28;20240;-78
2023/12/12 00:36:41;;;;;;;3.93;1.67;;;;;;;7.98;100.00;97657.47;5072644;28;20581;-78
2023/12/12 00:39:07;;;;;;;3.87;1.50;;;;;;;8.01;100.00;97663.38;5072305;28;20225;-78
2023/12/12 00:41:35;;;;;;;5.83;1.70;;;;;;;8.04;100.00;97657.06;5072277;28;20232;-78
2023/12/12 00:44:01;;;;;;;3.60;1.40;;;;;;;8.11;100.00;97653.06;5071326;28;20208;-79
2023/12/12 00:46:28;;;;;;;5.90;2.40;;;;;;;8.13;100.00;97661.69;5071655;28;20260;-78
2023/12/12 00:48:54;;;;;;;4.00;1.50;;;;;;;8.15;100.00;97665.09;5074344;28;20206;-78
2023/12/12 00:51:22;;;;;;;4.60;2.13;;;;;;;8.18;100.00;97664.88;5075642;28;20228;-78
2023/12/12 00:53:50;;;;;;;5.83;2.07;;;;;;;8.17;100.00;97657.94;5075583;28;20209;-78
2023/12/12 00:56:16;;;;;;;4.63;1.80;;;;;;;8.17;100.00;97655.31;5075265;28;20211;-78
2023/12/12 00:58:43;;;;;;;5.23;1.70;;;;;;;8.17;100.00;97663.19;5075932;28;20229;-78
2023/12/12 01:01:09;;;;;;;4.67;1.87;;;;;;;8.12;100.00;97663.50;5075535;28;20238;-78
2023/12/12 01:03:35;;;;;;;4.83;1.70;;;;;;;8.12;100.00;97675.81;5075687;28;20626;-78
2023/12/12 01:06:02;;;;;;;3.03;1.53;;;;;;;8.07;100.00;97668.22;5075359;28;20296;-78
2023/12/12 01:08:30;;;;;;;3.40;1.83;;;;;;;8.09;100.00;97657.59;5075398;28;20238;-78
2023/12/12 01:10:56;;;;;;;4.83;1.63;;;;;;;8.09;100.00;97653.16;5075437;28;20215;-78
2023/12/12 01:13:23;;;;;;;4.63;1.77;;;;;;;8.14;100.00;97658.97;5075318;28;20217;-78
2023/12/12 01:15:49;;;;;;;4.90;1.43;;;;;;;8.17;100.00;97655.31;5074280;28;20226;-78
2023/12/12 01:18:16;;;;;;;2.40;1.30;;;;;;;8.16;100.00;97662.38;5075189;28;20277;-78
2023/12/12 01:20:42;;;;;;;4.93;1.43;;;;;;;8.20;100.00;97663.03;5074917;28;20209;-78
2023/12/12 01:23:09;;;;;;;3.63;1.47;;;;;;;8.19;100.00;97666.56;5074924;28;20649;-78
2023/12/12 01:25:36;;;;;;;4.50;1.40;;;;;;;8.17;100.00;97665.81;5074562;28;20582;-78
2023/12/12 01:28:03;;;;;;;3.40;1.60;;;;;;;8.20;100.00;97663.03;5075086;28;20206;-78
2023/12/12 01:30:29;;;;;;;4.03;1.40;;;;;;;8.22;100.00;97661.13;5075107;28;20656;-78
2023/12/12 01:32:55;;;;;;;5.37;1.87;;;;;;;8.25;100.00;97653.03;5074878;28;20262;-79
2023/12/12 01:35:22;;;;;;;7.00;1.80;;;;;;;8.29;100.00;97655.38;5074469;28;20229;-79
2023/12/12 01:37:48;;;;;;;8.03;1.90;;;;;;;8.34;100.00;97657.69;5075074;28;20684;-79
2023/12/12 01:40:14;;;;;;;3.23;1.40;;;;;;;8.40;100.00;97659.91;5074859;28;20227;-79
2023/12/12 01:42:42;;;;;;;4.67;1.90;;;;;;;8.41;100.00;97646.63;5074829;28;20224;-79
2023/12/12 01:45:09;;;;;;;3.30;1.70;;;;;;;8.44;100.00;97637.69;5074439;28;20247;-79
2023/12/12 01:47:36;;;;;;;3.13;1.00;;;;;;;8.44;100.00;97635.06;5075299;28;20215;-79
2023/12/12 01:50:03;;;;;;;1.87;1.13;;;;;;;8.45;100.00;97636.72;5074963;28;20578;-79
2023/12/12 01:52:29;;;;;;;4.97;1.67;;;;;;;8.45;100.00;97626.19;5074519;28;20618;-79
2023/12/12 01:54:56;;;;;;;3.30;1.27;;;;;;;8.44;100.00;97635.88;5075432;28;20209;-80
2023/12/12 01:57:23;;;;;;;2.13;1.47;;;;;;;8.44;100.00;97635.06;5075548;28;20217;-80
2023/12/12 01:59:51;;;;;;;2.87;1.20;;;;;;;8.46;100.00;97633.97;5073807;28;20245;-79
2023/12/12 02:02:18;;;;;;;5.37;2.13;;;;;;;8.46;100.00;97628.69;5075273;28;20620;-79
2023/12/12 02:04:47;;;;;;;4.10;1.43;;;;;;;8.48;100.00;97620.72;5075255;28;20202;-79
2023/12/12 02:07:14;;;;;;;4.40;1.43;;;;;;;8.43;100.00;97617.53;5075981;28;20228;-80
2023/12/12 02:09:42;;;;;;;2.30;1.30;;;;;;;8.49;100.00;97622.38;5076158;28;20217;-79
2023/12/12 02:12:08;;;;;;;4.67;1.53;;;;;;;8.46;100.00;97623.44;5075309;28;20225;-80
2023/12/12 02:14:37;;;;;;;2.23;1.13;;;;;;;8.43;100.00;97623.66;5074909;28;20673;-80
2023/12/12 02:17:05;;;;;;;3.63;1.20;;;;;;;8.40;100.00;97628.28;5075143;28;20212;-79
2023/12/12 02:19:32;;;;;;;2.67;1.17;;;;;;;8.37;100.00;97631.13;5075239;28;20229;-80
2023/12/12 02:22:00;;;;;;;3.70;1.60;;;;;;;8.23;100.00;97626.81;5074961;28;20250;-80
2023/12/12 02:24:26;;;;;;;4.77;1.57;;;;;;;8.13;100.00;97625.72;5075039;28;20581;-79
2023/12/12 02:26:52;;;;;;;3.60;1.43;;;;;;;8.04;100.00;97605.28;5074465;28;20209;-79
2023/12/12 02:29:19;;;;;;;2.73;1.20;;;;;;;7.96;100.00;97606.75;5073681;28;20555;-80
2023/12/12 02:31:45;;;;;;;1.83;1.43;;;;;;;7.88;100.00;97598.50;5073868;28;20238;-79
2023/12/12 02:34:12;;;;;;;2.07;1.20;;;;;;;7.76;100.00;97604.56;5073755;28;20688;-80
2023/12/12 02:36:38;;;;;;;1.73;1.00;;;;;;;7.68;100.00;97594.59;5073255;28;20690;-80
2023/12/12 02:39:06;;;;;;;3.27;1.20;;;;;;;7.61;100.00;97600.34;5073821;28;20577;-80
2023/12/12 02:41:33;;;;;;;3.03;1.30;;;;;;;7.53;100.00;97618.41;5073538;28;20224;-79
2023/12/12 02:43:59;;;;;;;2.97;1.30;;;;;;;7.45;100.00;97615.44;5073252;28;20225;-79
2023/12/12 02:46:26;;;;;;;5.07;1.10;;;;;;;7.39;100.00;97615.81;5072975;28;20216;-80
2023/12/12 02:48:52;;;;;;;5.73;1.37;;;;;;;7.33;100.00;97609.19;5073201;28;20233;-80
2023/12/12 02:51:19;;;;;;;3.90;1.80;;;;;;;7.27;100.00;97616.59;5073333;28;20224;-79
2023/12/12 02:53:45;;;;;;;3.13;1.30;;;;;;;7.25;100.00;97613.25;5073367;28;20220;-79
2023/12/12 02:56:13;;;;;;;4.30;1.20;;;;;;;7.21;100.00;97609.13;5072789;28;20227;-80
2023/12/12 02:58:39;;;;;;;2.17;1.30;;;;;;;7.18;100.00;97616.34;5073286;28;20219;-80
2023/12/12 03:01:06;;;;;;;5.33;1.87;;;;;;;7.10;100.00;97619.50;5072888;28;20228;-80
2023/12/12 03:03:33;;;;;;;3.27;1.43;;;;;;;7.08;100.00;97610.03;5072910;28;20224;-79
2023/12/12 03:05:59;;;;;;;3.20;1.73;;;;;;;7.05;100.00;97604.94;5072895;28;20205;-79
2023/12/12 03:08:26;;;;;;;3.40;1.23;;;;;;;7.02;100.00;97611.22;5073230;28;20777;-79
2023/12/12 03:10:52;;;;;;;1.77;1.30;;;;;;;7.00;100.00;97601.75;5073192;28;20203;-79
2023/12/12 03:13:20;;;;;;;4.50;1.53;;;;;;;6.97;100.00;97597.53;5072294;28;20212;-80
2023/12/12 03:15:46;;;;;;;2.53;1.13;;;;;;;6.99;100.00;97614.06;5072288;28;20219;-78
2023/12/12 03:18:13;;;;;;;2.47;1.50;;;;;;;6.98;100.00;97615.00;5072660;28;20212;-80
2023/12/12 03:20:39;;;;;;;2.93;1.13;;;;;;;6.97;100.00;97623.81;5072937;28;20227;-78
2023/12/12 03:23:06;;;;;;;3.93;1.67;;;;;;;6.97;100.00;97610.69;5073068;28;20232;-78
2023/12/12 03:25:32;;;;;;;2.80;1.60;;;;;;;6.94;100.00;97599.53;5072913;28;20207;-78
2023/12/12 03:27:59;;;;;;;1.50;1.30;;;;;;;6.91;100.00;97592.69;5072677;28;20228;-78
2023/12/12 03:30:27;;;;;;;3.07;1.73;;;;;;;6.84;100.00;97599.25;5072734;28;20204;-78
2023/12/12 03:32:53;;;;;;;2.80;1.17;;;;;;;6.84;100.00;97585.31;5072774;28;20231;-78
2023/12/12 03:35:20;;;;;;;1.67;1.13;;;;;;;6.79;100.00;97588.19;5072282;28;20210;-78
2023/12/12 03:37:46;;;;;;;3.37;1.30;;;;;;;6.79;100.00;97576.88;5072637;28;20207;-78
2023/12/12 03:40:13;;;;;;;2.33;1.00;;;;;;;6.79;100.00;97582.94;5072929;28;20234;-78
2023/12/12 03:42:40;;;;;;;1.73;1.13;;;;;;;6.78;100.00;97581.25;5072527;28;20228;-78
2023/12/12 03:45:07;;;;;;;1.90;1.13;;;;;;;6.80;100.00;97584.66;5072373;28;20207;-78
2023/12/12 03:47:35;;;;;;;2.27;1.40;;;;;;;6.91;100.00;97589.22;5072771;28;20585;-78
2023/12/12 03:50:02;;;;;;;1.97;1.40;;;;;;;6.97;100.00;97587.03;5072598;28;20216;-78
2023/12/12 03:52:28;;;;;;;3.63;1.40;;;;;;;7.15;100.00;97574.53;5072586;28;20672;-78
2023/12/12 03:54:55;;;;;;;2.80;1.20;;;;;;;7.26;100.00;97566.81;5072200;28;20208;-78
2023/12/12 03:57:21;;;;;;;3.20;1.10;;;;;;;7.33;100.00;97563.66;5072637;28;20216;-79
2023/12/12 03:59:48;;;;;;;4.03;1.37;;;;;;;7.40;100.00;97565.78;5072230;28;20231;-79
2023/12/12 04:02:14;;;;;;;1.70;1.27;;;;;;;7.46;100.00;97552.25;5072350;28;20246;-78
2023/12/12 04:04:42;;;;;;;4.17;1.10;;;;;;;7.43;100.00;97543.72;5072204;28;20227;-79
2023/12/12 04:07:09;;;;;;;1.97;1.10;;;;;;;7.43;100.00;97548.97;5072758;28;20210;-78
2023/12/12 04:09:35;;;;;;;1.60;1.10;;;;;;;7.41;100.00;97550.88;5072891;28;20216;-78
2023/12/12 04:12:02;;;;;;;1.87;1.03;;;;;;;7.40;100.00;97559.66;5072646;28;20231;-78
2023/12/12 04:14:28;;;;;;;2.10;0.93;;;;;;;7.36;100.00;97550.31;5072556;28;20302;-78
2023/12/12 04:16:55;;;;;;;2.40;1.10;;;;;;;7.33;100.00;97546.09;5073192;28;20232;-78
2023/12/12 04:19:21;;;;;;;2.83;1.30;;;;;;;7.27;100.00;97545.66;5073609;28;20216;-78
2023/12/12 04:21:49;;;;;;;1.40;1.00;;;;;;;7.16;100.00;97535.03;5073788;28;20232;-79
2023/12/12 04:24:15;;;;;;;2.57;1.00;;;;;;;7.08;100.00;97537.28;5073090;28;20209;-79
2023/12/12 04:26:43;;;;;;;3.17;1.20;;;;;;;6.97;100.00;97534.50;5073622;28;20215;-79
2023/12/12 04:29:09;;;;;;;0.93;0.90;;;;;;;6.90;100.00;97543.72;5073909;28;20216;-78
2023/12/12 04:31:36;;;;;;;3.87;1.30;;;;;;;6.83;100.00;97547.66;5074121;28;20227;-79
2023/12/12 04:34:02;;;;;;;3.30;1.33;;;;;;;6.89;100.00;97542.03;5073726;28;20209;-78
2023/12/12 04:36:29;;;;;;;2.27;1.17;;;;;;;6.88;100.00;97539.50;5073651;28;20580;-79
2023/12/12 04:38:57;;;;;;;3.53;1.30;;;;;;;6.86;100.00;97542.25;5073673;28;20211;-79
2023/12/12 04:41:23;;;;;;;4.13;1.40;;;;;;;6.87;100.00;97543.94;5073219;28;20258;-79
2023/12/12 04:43:50;;;;;;;1.83;1.20;;;;;;;6.80;100.00;97547.88;5072503;28;20211;-80
2023/12/12 04:46:20;;;;;;;2.03;1.17;;;;;;;6.77;100.00;97547.25;5071558;28;20296;-80
2023/12/12 04:48:46;;;;;;;2.90;1.10;;;;;;;6.66;100.00;97537.38;5072889;28;20689;-80
2023/12/12 04:51:13;;;;;;;3.20;1.30;;;;;;;6.60;100.00;97540.41;5072812;28;20350;-81
2023/12/12 04:53:39;;;;;;;2.03;1.10;;;;;;;6.54;100.00;97535.53;5072457;28;20723;-80
2023/12/12 04:56:08;;;;;;;2.63;1.37;;;;;;;6.47;100.00;97534.22;5073460;28;20216;-80
2023/12/12 04:58:34;;;;;;;1.73;1.23;;;;;;;6.45;100.00;97532.63;5073045;28;20209;-80
2023/12/12 05:01:01;;;;;;;2.33;1.30;;;;;;;6.41;100.00;97516.25;5072442;28;20228;-80
2023/12/12 05:03:27;;;;;;;1.83;1.17;;;;;;;6.38;100.00;97513.81;5072214;28;20217;-78
2023/12/12 05:05:54;;;;;;;2.77;1.27;;;;;;;6.32;100.00;97519.44;5071832;28;20211;-80
2023/12/12 05:08:20;;;;;;;2.73;1.30;;;;;;;6.23;100.00;97509.50;5072260;28;20218;-78
2023/12/12 05:10:47;;;;;;;2.37;1.40;;;;;;;6.19;100.00;97528.16;5071894;28;20680;-80
2023/12/12 05:13:15;;;;;;;2.13;1.50;;;;;;;6.10;100.00;97524.31;5072421;28;20642;-78
2023/12/12 05:15:41;;;;;;;3.23;1.60;;;;;;;6.11;100.00;97526.00;5072325;28;20218;-78
2023/12/12 05:18:08;;;;;;;3.53;1.87;;;;;;;6.06;100.00;97533.34;5073143;28;20204;-80
2023/12/12 05:20:35;;;;;;;2.90;1.73;;;;;;;6.04;100.00;97527.31;5071764;28;20227;-80
2023/12/12 05:23:01;;;;;;;2.83;1.37;;;;;;;6.05;100.00;97531.63;5071449;28;20462;-80
2023/12/12 05:25:28;;;;;;;2.37;1.50;;;;;;;6.12;100.00;97525.06;5070719;28;20207;-80
2023/12/12 05:27:54;;;;;;;2.43;1.60;;;;;;;6.16;100.00;97529.19;5071557;28;20203;-80
2023/12/12 05:30:22;;;;;;;4.80;2.23;;;;;;;6.22;100.00;97534.06;5071457;28;20199;-79
2023/12/12 05:32:49;;;;;;;4.33;2.07;;;;;;;6.31;100.00;97528.25;5071800;28;20227;-79
2023/12/12 05:35:15;;;;;;;3.60;2.10;;;;;;;6.37;100.00;97533.13;5072146;28;20215;-79
2023/12/12 05:37:42;;;;;;;2.37;1.70;;;;;;;6.39;100.00;97531.25;5075271;28;20211;-79
2023/12/12 05:40:09;;;;;;;4.53;1.97;;;;;;;6.45;100.00;97519.50;5075333;28;20223;-79
2023/12/12 05:42:35;;;;;;;4.17;1.90;;;;;;;6.48;100.00;97512.28;5074946;28;20228;-79
2023/12/12 05:45:03;;;;;;;3.77;2.10;;;;;;;6.50;100.00;97518.31;5075014;28;20221;-79
2023/12/12 05:47:31;;;;;;;5.80;2.10;;;;;;;6.56;100.00;97507.41;5074920;28;20236;-79
2023/12/12 05:49:57;;;;;;;2.27;1.93;;;;;;;6.65;100.00;97504.19;5074618;28;20215;-79
2023/12/12 05:52:25;;;;;;;4.23;1.87;;;;;;;6.68;100.00;97490.03;5074574;28;20223;-79
2023/12/12 05:54:52;;;;;;;2.10;1.87;;;;;;;6.67;100.00;97489.22;5073684;28;20610;-79
2023/12/12 05:57:18;;;;;;;3.77;2.40;;;;;;;6.64;100.00;97493.78;5074544;28;20583;-79
2023/12/12 05:59:46;;;;;;;4.07;2.23;;;;;;;6.62;100.00;97493.91;5074550;28;20219;-79
2023/12/12 06:02:12;;;;;;;3.97;2.00;;;;;;;6.67;100.00;97510.22;5074253;28;20744;-79
2023/12/12 06:04:40;;;;;;;2.83;2.10;;;;;;;6.64;100.00;97505.16;5074171;28;20208;-79
2023/12/12 06:07:07;;;;;;;3.37;2.17;;;;;;;6.67;100.00;97498.84;5074841;28;20566;-79
2023/12/12 06:09:33;;;;;;;5.60;2.50;;;;;;;6.72;100.00;97517.78;5074110;28;20222;-79
2023/12/12 06:12:00;;;;;;;3.67;2.30;;;;;;;6.77;100.00;97527.06;5074288;28;20231;-79
2023/12/12 06:14:27;;;;;;;6.37;3.03;;;;;;;6.76;100.00;97520.13;5072257;28;20636;-79
2023/12/12 06:16:53;;;;;;;5.27;2.80;;;;;;;6.73;100.00;97525.56;5074228;28;20583;-79
2023/12/12 06:19:20;;;;;;;5.80;2.63;;;;;;;6.72;100.00;97516.00;5073918;28;20213;-79
2023/12/12 06:21:52;;;;;;;4.10;2.50;;;;;;;6.69;100.00;97507.47;5073677;28;20712;-78
2023/12/12 06:24:18;;;;;;;5.20;3.03;;;;;;;6.68;100.00;97509.28;5073223;28;20223;-78
2023/12/12 06:26:45;;;;;;;4.23;2.70;;;;;;;6.67;100.00;97510.22;5073733;28;20604;-80
2023/12/12 06:29:12;;;;;;;5.87;2.60;;;;;;;6.64;100.00;97499.88;5074001;28;20212;-80
2023/12/12 06:31:39;;;;;;;5.90;2.87;;;;;;;6.65;100.00;97490.25;5073625;28;20629;-78
2023/12/12 06:34:07;;;;;;;4.20;2.50;;;;;;;6.69;100.00;97503.06;5073494;28;20210;-80
2023/12/12 06:36:34;;;;;;;6.73;3.17;;;;;;;6.75;100.00;97507.94;5073302;28;20563;-78
2023/12/12 06:39:02;;;;;;;4.53;2.73;;;;;;;6.77;100.00;97508.66;5073750;28;20239;-78
2023/12/12 06:41:29;;;;;;;3.80;2.63;;;;;;;6.84;100.00;97503.88;5073425;28;20235;-80
2023/12/12 06:43:55;;;;;;;4.53;2.50;;;;;;;6.84;100.00;97498.63;5073436;28;20689;-79
2023/12/12 06:46:22;;;;;;;5.83;2.53;;;;;;;6.88;100.00;97486.97;5073943;28;20214;-78
2023/12/12 06:48:48;;;;;;;5.70;2.20;;;;;;;6.88;100.00;97482.56;5075847;28;20584;-78
2023/12/12 06:51:15;;;;;;;7.03;2.20;;;;;;;6.87;100.00;97475.63;5074434;28;20227;-78
2023/12/12 06:53:41;;;;;;;4.37;2.10;;;;;;;6.89;100.00;97473.75;5074527;28;20206;-78
2023/12/12 06:56:10;;;;;;;3.43;2.10;;;;;;;6.93;100.00;97471.75;5074135;28;20637;-78
2023/12/12 06:58:37;;;;;;;5.07;2.80;;;;;;;6.95;100.00;97464.63;5074414;28;20574;-78
2023/12/12 07:01:04;;;;;;;3.97;2.27;;;;;;;6.95;100.00;97468.09;5074059;28;20242;-78
2023/12/12 07:03:30;;;;;;;2.90;2.00;;;;;;;6.98;100.00;97478.41;5072895;28;20245;-78
2023/12/12 07:05:57;;;;;;;3.27;2.20;;;;;;;7.01;100.00;97475.56;5072561;28;20208;-78
2023/12/12 07:08:23;;;;;;;4.53;2.00;;;;;;;7.03;100.00;97471.03;5073678;28;20670;-78
2023/12/12 07:10:50;;;;;;;5.00;2.07;;;;;;;7.00;100.00;97467.78;5074040;28;20207;-78
2023/12/12 07:13:18;;;;;;;3.23;1.97;;;;;;;7.09;100.00;97470.66;5074118;28;20215;-78
2023/12/12 07:15:44;;;;;;;3.37;1.70;;;;;;;7.06;100.00;97470.84;5073305;28;20204;-78
2023/12/12 07:18:12;;;;;;;2.83;1.77;;;;;;;7.04;100.00;97472.75;5072631;28;20218;-79
2023/12/12 07:20:39;;;;;;;2.17;1.60;;;;;;;7.09;100.00;97478.53;5072713;28;20638;-78
2023/12/12 07:23:06;;;;;;;4.80;1.90;;;;;;;7.11;100.00;97479.28;5072388;28;20233;-78
2023/12/12 07:25:32;;;;;;;3.93;1.97;;;;;;;7.10;100.00;97488.13;5071867;28;20603;-78
2023/12/12 07:27:59;;;;;;;3.33;1.93;;;;;;;7.10;100.00;97487.25;5071923;28;20612;-78
2023/12/12 07:30:28;;;;;;;3.57;1.80;;;;;;;7.10;100.00;97492.53;5072375;28;20204;-78
2023/12/12 07:32:54;;;;;;;2.33;1.80;;;;;;;7.10;100.00;97501.25;5072765;28;20236;-78
2023/12/12 07:35:21;;;;;;;3.43;1.93;;;;;;;7.09;100.00;97496.91;5071827;28;20207;-78
2023/12/12 07:37:47;;;;;;;4.23;1.80;;;;;;;7.14;100.00;97494.84;5072012;28;20215;-78
2023/12/12 07:40:14;;;;;;;2.50;1.43;;;;;;;7.15;100.00;97495.69;5071781;28;20210;-78
2023/12/12 07:42:40;;;;;;;3.97;1.90;;;;;;;7.21;100.00;97490.84;5072079;28;20255;-79
2023/12/12 07:45:09;;;;;;;2.63;1.30;;;;;;;7.26;100.00;97485.31;5072050;28;20203;-78
2023/12/12 07:47:37;;;;;;;4.00;1.70;;;;;;;7.28;100.00;97471.16;5072439;28;20211;-78
2023/12/12 07:50:05;;;;;;;2.83;1.80;;;;;;;7.38;100.00;97464.31;5072464;28;20581;-78
2023/12/12 07:52:34;;;;;;;5.47;2.27;;;;;;;7.43;100.00;97464.84;5071954;28;20767;-78
2023/12/12 07:55:00;;;;;;;3.77;2.13;;;;;;;7.41;100.00;97477.25;5071301;28;20210;-79
2023/12/12 07:57:27;;;;;;;3.43;1.73;;;;;;;7.38;100.00;97477.44;5072058;28;20207;-79
2023/12/12 07:59:53;;;;;;;3.23;2.40;;;;;;;7.38;100.00;97482.72;5072000;28;20218;-79
2023/12/12 08:02:21;;;;;;;3.70;2.30;;;;;;;7.45;100.00;97478.72;5072194;28;20254;-79
2023/12/12 08:04:49;;;;;;;4.87;2.33;;;;;;;7.44;100.00;97487.56;5071731;28;20206;-78
2023/12/12 08:07:16;;;;;;;4.80;2.03;;;;;;;7.46;100.00;97483.03;5073519;28;20214;-79
2023/12/12 08:09:42;;;;;;;5.23;2.10;;;;;;;7.45;100.00;97478.72;5073867;28;20211;-79
2023/12/12 08:12:09;;;;;;;4.33;1.90;;;;;;;7.43;100.00;97478.00;5074474;28;20231;-80
2023/12/12 08:14:35;;;;;;;3.57;2.00;;;;;;;7.43;100.00;97468.31;5073485;28;20208;-79
2023/12/12 08:17:02;;;;;;;3.03;2.10;;;;;;;7.45;100.00;97462.94;5075670;28;20238;-80
2023/12/12 08:19:29;;;;;;;3.17;1.70;;;;;;;7.44;100.00;97456.88;5074723;28;20256;-79
2023/12/12 08:21:56;;;;;;;3.93;2.10;;;;;;;7.46;100.00;97443.59;5074748;28;20233;-79
2023/12/12 08:24:23;;;;;;;5.80;1.93;;;;;;;7.54;100.00;97446.56;5075287;28;20220;-78
2023/12/12 08:26:49;;;;;;;4.27;2.00;;;;;;;7.57;100.00;97436.69;5074273;28;20697;-78
2023/12/12 08:29:16;;;;;;;4.07;2.10;;;;;;;7.63;100.00;97432.78;5073423;28;20206;-78
2023/12/12 08:31:43;;;;;;;3.80;2.00;;;;;;;7.63;100.00;97431.00;5072278;28;20224;-78
2023/12/12 08:34:10;;;;;;;2.70;2.00;;;;;;;7.70;100.00;97418.25;5071975;28;20209;-78
2023/12/12 08:36:37;;;;;;;4.73;3.00;;;;;;;7.85;100.00;97406.69;5071516;28;20296;-77
2023/12/12 08:39:07;;;;;;;2.90;2.33;;;;;;;7.85;100.00;97406.69;5070364;28;20334;-79
2023/12/12 08:41:33;;;;;;;4.27;2.37;;;;;;;7.86;100.00;97400.47;5072173;28;20686;-79
2023/12/12 08:44:00;;;;;;;5.07;2.40;;;;;;;7.88;100.00;97406.47;5071918;28;20212;-78
2023/12/12 08:46:27;;;;;;;5.70;2.70;;;;;;;7.88;100.00;97407.31;5071411;28;20209;-79
2023/12/12 08:48:55;;;;;;;5.70;2.70;;;;;;;7.85;100.00;97398.78;5072214;28;20217;-79
2023/12/12 08:51:22;;;;;;;4.20;2.40;;;;;;;7.80;100.00;97393.00;5072038;28;20269;-79
2023/12/12 08:53:48;;;;;;;5.07;2.43;;;;;;;7.70;100.00;97389.31;5071934;28;20221;-79
2023/12/12 08:56:17;;;;;;;4.20;2.43;;;;;;;7.63;100.00;97393.34;5071432;28;20210;-78
2023/12/12 08:58:44;;;;;;;4.05;2.50;;;;;;;7.72;100.00;97398.78;5071032;28;20442;-79
2023/12/12 09:01:11;;;;;;;5.93;2.80;;;;;;;7.82;100.00;97394.59;5069685;28;20283;-80
2023/12/12 09:03:37;;;;;;;4.37;2.17;;;;;;;7.98;100.00;97394.34;5069652;28;20214;-76
2023/12/12 09:06:04;;;;;;;3.50;2.40;;;;;;;8.13;100.00;97388.84;5070907;28;20224;-77
2023/12/12 09:08:30;;;;;;;4.10;1.93;;;;;;;8.26;100.00;97394.13;5070955;28;20219;-75
2023/12/12 09:10:59;;;;;;;6.63;2.60;;;;;;;8.31;100.00;97392.81;5074165;28;20222;-78
2023/12/12 09:13:26;;;;;;;3.33;2.13;;;;;;;8.35;100.00;97394.28;5074538;28;20687;-78
2023/12/12 09:15:53;;;;;;;4.83;2.40;;;;;;;8.40;100.00;97396.59;5074262;28;20702;-79
2023/12/12 09:18:21;;;;;;;3.07;2.23;;;;;;;8.49;100.00;97382.75;5073662;28;20222;-79
2023/12/12 09:20:48;;;;;;;3.63;2.20;;;;;;;8.47;100.00;97387.28;5074369;28;20224;-79
2023/12/12 09:23:14;;;;;;;6.57;2.20;;;;;;;8.47;100.00;97389.94;5074678;28;20209;-78
2023/12/12 09:25:41;;;;;;;4.20;2.30;;;;;;;8.46;100.00;97382.97;5073331;28;20210;-78
2023/12/12 09:28:07;;;;;;;4.07;2.47;;;;;;;8.41;100.00;97380.69;5074140;28;20217;-77
2023/12/12 09:30:35;;;;;;;4.40;2.70;;;;;;;8.45;100.00;97374.22;5073814;28;20217;-79
2023/12/12 09:33:02;;;;;;;5.33;2.70;;;;;;;8.42;100.00;97368.34;5073268;28;20700;-77
2023/12/12 09:35:29;;;;;;;7.03;3.33;;;;;;;8.36;100.00;97360.91;5073819;28;20622;-78
2023/12/12 09:37:55;;;;;;;5.73;3.17;;;;;;;8.36;100.00;97350.38;5074204;28;20603;-79
2023/12/12 09:40:22;;;;;;;7.00;3.73;;;;;;;8.39;100.00;97352.78;5073672;28;20221;-80
2023/12/12 09:42:49;;;;;;;6.77;3.87;;;;;;;8.39;100.00;97347.53;5073699;28;20238;-77
2023/12/12 09:45:16;;;;;;;6.47;3.80;;;;;;;8.42;100.00;97348.13;5073400;28;20213;-77
2023/12/12 09:47:45;;;;;;;7.07;4.10;;;;;;;8.43;100.00;97338.44;5073415;28;20672;-77
2023/12/12 09:50:12;;;;;;;6.60;3.40;;;;;;;8.46;100.00;97338.22;5073846;28;20203;-77
2023/12/12 09:52:40;;;;;;;6.47;3.57;;;;;;;8.46;100.00;97338.22;5073939;28;20230;-78
2023/12/12 09:55:07;;;;;;;5.23;3.43;;;;;;;8.47;100.00;97329.38;5073036;28;20219;-80
2023/12/12 09:57:34;;;;;;;5.43;3.30;;;;;;;8.46;100.00;97333.78;5074338;28;20218;-78
2023/12/12 10:00:01;;;;;;;4.73;3.50;;;;;;;8.44;100.00;97335.69;5075747;28;20234;-80
2023/12/12 10:02:31;;;;;;;7.27;3.40;;;;;;;8.48;100.00;97331.03;5074292;28;20680;-78
2023/12/12 10:05:00;;;;;;;6.13;3.57;;;;;;;8.49;100.00;97327.44;5074435;28;20213;-78
2023/12/12 10:07:27;;;;;;;5.93;3.60;;;;;;;8.55;100.00;97319.09;5075450;28;20437;-81
2023/12/12 10:09:54;;;;;;;7.93;3.30;;;;;;;8.53;100.00;97318.38;5076228;28;20211;-78
2023/12/12 10:12:20;;;;;;;4.47;2.93;;;;;;;8.56;100.00;97312.91;5075795;28;20223;-78
2023/12/12 10:14:47;;;;;;;5.87;3.33;;;;;;;8.60;100.00;97314.34;5074168;28;20213;-77
2023/12/12 10:17:15;;;;;;;4.53;2.83;;;;;;;8.58;100.00;97316.25;5075145;28;20267;-78
2023/12/12 10:19:42;;;;;;;3.83;2.90;;;;;;;8.58;100.00;97306.53;5075753;28;20214;-78
2023/12/12 10:22:10;;;;;;;4.87;3.20;;;;;;;8.56;100.00;97292.66;5074839;28;20591;-80
2023/12/12 10:24:37;;;;;;;3.97;2.83;;;;;;;8.61;100.00;97284.41;5073645;28;20213;-80
2023/12/12 10:27:05;;;;;;;3.87;2.90;;;;;;;8.60;100.00;97277.47;5074543;28;20219;-79
2023/12/12 10:29:32;;;;;;;4.70;3.07;;;;;;;8.58;100.00;97279.38;5076297;28;20214;-79
2023/12/12 10:31:59;;;;;;;4.60;3.10;;;;;;;8.61;100.00;97284.41;5076048;28;20602;-78
2023/12/12 10:34:27;;;;;;;6.00;3.55;;;;;;;8.70;100.00;97289.00;5074652;28;20908;-78
2023/12/12 10:36:54;;;;;;;5.90;3.17;;;;;;;8.69;100.00;97282.06;5074845;28;20438;-81
2023/12/12 10:39:22;;;;;;;4.00;3.23;;;;;;;8.66;100.00;97272.59;5074401;28;20217;-79
2023/12/12 10:41:52;;;;;;;5.23;3.20;;;;;;;8.72;100.00;97263.38;5072690;28;20284;-79
2023/12/12 10:44:22;;;;;;;3.70;2.90;;;;;;;8.67;100.00;97260.25;5073734;28;20206;-79
2023/12/12 10:46:52;;;;;;;5.47;3.17;;;;;;;8.63;100.00;97251.72;5073929;28;20284;-77
2023/12/12 10:49:21;;;;;;;5.87;3.23;;;;;;;8.60;100.00;97251.13;5073950;28;20213;-78
2023/12/12 10:51:50;;;;;;;3.50;3.20;;;;;;;8.55;100.00;97242.72;5075110;28;20231;-79
2023/12/12 10:54:17;;;;;;;5.03;3.43;;;;;;;8.55;100.00;97240.94;5074773;28;20717;-78
2023/12/12 10:56:46;;;;;;;4.07;3.00;;;;;;;8.50;100.00;97234.34;5075976;28;20218;-79
2023/12/12 10:59:16;;;;;;;5.43;3.23;;;;;;;8.48;100.00;97220.44;5073631;28;20212;-79
2023/12/12 11:01:44;;;;;;;5.47;2.80;;;;;;;8.48;100.00;97210.75;5074433;28;20280;-81
2023/12/12 11:04:11;;;;;;;5.00;2.97;;;;;;;8.49;100.00;97194.00;5073553;28;20207;-80
2023/12/12 11:06:38;;;;;;;4.53;3.03;;;;;;;8.48;100.00;97194.13;5071906;28;20232;-80
2023/12/12 11:09:06;;;;;;;3.60;2.80;;;;;;;8.51;100.00;97188.63;5072931;28;20224;-81
2023/12/12 11:11:33;;;;;;;5.90;3.30;;;;;;;8.60;100.00;97178.22;5074156;28;20438;-81
2023/12/12 11:14:02;;;;;;;3.80;2.50;;;;;;;8.68;100.00;97177.63;5074795;28;20600;-81
2023/12/12 11:16:30;;;;;;;4.27;2.60;;;;;;;8.75;100.00;97174.41;5073712;28;20695;-78
2023/12/12 11:19:00;;;;;;;3.63;2.30;;;;;;;8.77;100.00;97163.75;5073196;28;20567;-80
2023/12/12 11:21:46;;;;;;;5.17;2.23;;;;;;;8.82;100.00;97167.72;5072369;28;20231;-79
2023/12/12 11:24:13;;;;;;;3.80;2.10;;;;;;;8.78;100.00;97160.16;5072702;28;20306;-79
2023/12/12 11:26:41;;;;;;;2.43;2.10;;;;;;;8.74;100.00;97159.56;5072033;28;20215;-80
2023/12/12 11:29:11;;;;;;;2.97;2.10;;;;;;;8.73;100.00;97160.53;5072600;28;20214;-78
2023/12/12 11:31:38;;;;;;;3.67;2.07;;;;;;;8.73;100.00;97157.03;5072616;28;20688;-79